sensor_id;sensor_type;location;lat;lon;timestamp;P1;durP1;ratioP1;P2;durP2;ratioP2
422;SDS011;198;48.752;9.180;2023-11-21T00:01:25;15.63;;;2.30;;
422;SDS011;198;48.752;9.180;2023-11-21T00:03:50;4.73;;;1.87;;
422;SDS011;198;48.752;9.180;2023-11-21T00:06:19;4.03;;;2.03;;
422;SDS011;198;48.752;9.180;2023-11-21T00:08:45;8.90;;;2.60;;
422;SDS011;198;48.752;9.180;2023-11-21T00:11:10;8.23;;;1.83;;
422;SDS011;198;48.752;9.180;2023-11-21T00:13:36;6.70;;;2.60;;
422;SDS011;198;48.752;9.180;2023-11-21T00:16:02;9.30;;;2.33;;
422;SDS011;198;48.752;9.180;2023-11-21T00:18:29;6.57;;;1.80;;
422;SDS011;198;48.752;9.180;2023-11-21T00:20:54;4.53;;;2.20;;
422;SDS011;198;48.752;9.180;2023-11-21T00:23:20;8.93;;;2.27;;
422;SDS011;198;48.752;9.180;2023-11-21T00:25:45;7.90;;;1.80;;
422;SDS011;198;48.752;9.180;2023-11-21T00:28:11;14.13;;;2.10;;
422;SDS011;198;48.752;9.180;2023-11-21T00:30:36;5.00;;;2.40;;
422;SDS011;198;48.752;9.180;2023-11-21T00:33:03;9.70;;;2.20;;
422;SDS011;198;48.752;9.180;2023-11-21T00:35:29;8.07;;;2.10;;
422;SDS011;198;48.752;9.180;2023-11-21T00:37:54;7.93;;;1.50;;
422;SDS011;198;48.752;9.180;2023-11-21T00:40:21;3.20;;;1.90;;
422;SDS011;198;48.752;9.180;2023-11-21T00:42:47;2.90;;;1.50;;
422;SDS011;198;48.752;9.180;2023-11-21T00:45:12;3.70;;;1.87;;
422;SDS011;198;48.752;9.180;2023-11-21T00:47:38;5.53;;;1.50;;
422;SDS011;198;48.752;9.180;2023-11-21T00:50:04;9.63;;;1.80;;
422;SDS011;198;48.752;9.180;2023-11-21T00:52:31;16.97;;;2.63;;
422;SDS011;198;48.752;9.180;2023-11-21T00:54:57;11.23;;;2.10;;
422;SDS011;198;48.752;9.180;2023-11-21T00:57:24;5.67;;;1.90;;
422;SDS011;198;48.752;9.180;2023-11-21T00:59:51;4.37;;;1.70;;
422;SDS011;198;48.752;9.180;2023-11-21T01:02:16;3.97;;;1.80;;
422;SDS011;198;48.752;9.180;2023-11-21T01:04:42;14.00;;;1.83;;
422;SDS011;198;48.752;9.180;2023-11-21T01:07:08;2.33;;;1.70;;
422;SDS011;198;48.752;9.180;2023-11-21T01:09:34;7.40;;;1.73;;
422;SDS011;198;48.752;9.180;2023-11-21T01:11:59;10.13;;;2.37;;
422;SDS011;198;48.752;9.180;2023-11-21T01:14:25;1.57;;;1.40;;
422;SDS011;198;48.752;9.180;2023-11-21T01:16:52;5.90;;;2.20;;
422;SDS011;198;48.752;9.180;2023-11-21T01:19:17;3.27;;;2.03;;
422;SDS011;198;48.752;9.180;2023-11-21T01:21:43;8.73;;;1.60;;
422;SDS011;198;48.752;9.180;2023-11-21T01:24:09;2.10;;;1.57;;
422;SDS011;198;48.752;9.180;2023-11-21T01:26:34;10.13;;;1.67;;
422;SDS011;198;48.752;9.180;2023-11-21T01:29:00;6.70;;;1.50;;
422;SDS011;198;48.752;9.180;2023-11-21T01:31:25;5.73;;;2.10;;
422;SDS011;198;48.752;9.180;2023-11-21T01:33:55;1.33;;;1.10;;
422;SDS011;198;48.752;9.180;2023-11-21T01:36:21;5.77;;;2.50;;
422;SDS011;198;48.752;9.180;2023-11-21T01:38:47;5.73;;;1.77;;
422;SDS011;198;48.752;9.180;2023-11-21T01:41:15;3.13;;;1.30;;
422;SDS011;198;48.752;9.180;2023-11-21T01:43:41;5.20;;;1.50;;
422;SDS011;198;48.752;9.180;2023-11-21T01:46:06;2.67;;;1.70;;
422;SDS011;198;48.752;9.180;2023-11-21T01:48:33;3.03;;;1.47;;
422;SDS011;198;48.752;9.180;2023-11-21T01:50:59;2.50;;;1.20;;
422;SDS011;198;48.752;9.180;2023-11-21T01:53:26;5.43;;;1.80;;
422;SDS011;198;48.752;9.180;2023-11-21T01:55:52;1.47;;;1.43;;
422;SDS011;198;48.752;9.180;2023-11-21T01:58:19;4.73;;;1.60;;
422;SDS011;198;48.752;9.180;2023-11-21T02:00:45;7.60;;;2.40;;
422;SDS011;198;48.752;9.180;2023-11-21T02:03:10;2.43;;;1.70;;
422;SDS011;198;48.752;9.180;2023-11-21T02:05:37;15.53;;;2.10;;
422;SDS011;198;48.752;9.180;2023-11-21T02:08:02;2.67;;;1.53;;
422;SDS011;198;48.752;9.180;2023-11-21T02:10:34;4.03;;;1.20;;
422;SDS011;198;48.752;9.180;2023-11-21T02:13:01;2.90;;;1.33;;
422;SDS011;198;48.752;9.180;2023-11-21T02:15:27;2.80;;;1.80;;
422;SDS011;198;48.752;9.180;2023-11-21T02:17:54;4.10;;;1.60;;
422;SDS011;198;48.752;9.180;2023-11-21T02:20:23;4.17;;;1.50;;
422;SDS011;198;48.752;9.180;2023-11-21T02:22:50;4.97;;;1.20;;
422;SDS011;198;48.752;9.180;2023-11-21T02:25:32;6.63;;;1.60;;
422;SDS011;198;48.752;9.180;2023-11-21T02:28:01;5.73;;;1.97;;
422;SDS011;198;48.752;9.180;2023-11-21T02:30:27;10.67;;;1.50;;
422;SDS011;198;48.752;9.180;2023-11-21T02:32:54;4.43;;;1.50;;
422;SDS011;198;48.752;9.180;2023-11-21T02:35:20;8.53;;;1.73;;
422;SDS011;198;48.752;9.180;2023-11-21T02:37:49;4.87;;;1.60;;
422;SDS011;198;48.752;9.180;2023-11-21T02:40:15;2.03;;;1.30;;
422;SDS011;198;48.752;9.180;2023-11-21T02:42:45;5.17;;;1.30;;
422;SDS011;198;48.752;9.180;2023-11-21T02:45:12;10.30;;;1.33;;
422;SDS011;198;48.752;9.180;2023-11-21T02:47:39;3.90;;;1.40;;
422;SDS011;198;48.752;9.180;2023-11-21T02:50:05;3.27;;;0.83;;
422;SDS011;198;48.752;9.180;2023-11-21T02:52:33;9.80;;;2.27;;
422;SDS011;198;48.752;9.180;2023-11-21T02:55:00;2.93;;;0.97;;
422;SDS011;198;48.752;9.180;2023-11-21T02:57:26;3.53;;;1.10;;
422;SDS011;198;48.752;9.180;2023-11-21T02:59:51;1.27;;;1.17;;
422;SDS011;198;48.752;9.180;2023-11-21T03:02:17;1.43;;;1.30;;
422;SDS011;198;48.752;9.180;2023-11-21T03:04:42;2.43;;;0.93;;
422;SDS011;198;48.752;9.180;2023-11-21T03:07:08;7.23;;;1.37;;
422;SDS011;198;48.752;9.180;2023-11-21T03:09:34;3.60;;;1.03;;
422;SDS011;198;48.752;9.180;2023-11-21T03:12:00;6.10;;;1.23;;
422;SDS011;198;48.752;9.180;2023-11-21T03:14:26;4.83;;;3.03;;
422;SDS011;198;48.752;9.180;2023-11-21T03:16:51;3.27;;;1.00;;
422;SDS011;198;48.752;9.180;2023-11-21T03:19:17;2.93;;;1.20;;
422;SDS011;198;48.752;9.180;2023-11-21T03:21:42;1.83;;;1.10;;
422;SDS011;198;48.752;9.180;2023-11-21T03:24:08;3.97;;;1.17;;
422;SDS011;198;48.752;9.180;2023-11-21T03:26:33;1.03;;;1.00;;
422;SDS011;198;48.752;9.180;2023-11-21T03:28:59;1.67;;;0.90;;
422;SDS011;198;48.752;9.180;2023-11-21T03:31:24;2.93;;;0.90;;
422;SDS011;198;48.752;9.180;2023-11-21T03:33:51;2.93;;;1.10;;
422;SDS011;198;48.752;9.180;2023-11-21T03:36:18;1.53;;;1.07;;
422;SDS011;198;48.752;9.180;2023-11-21T03:38:44;2.50;;;1.13;;
422;SDS011;198;48.752;9.180;2023-11-21T03:41:10;1.50;;;0.90;;
422;SDS011;198;48.752;9.180;2023-11-21T03:43:38;1.33;;;0.83;;
422;SDS011;198;48.752;9.180;2023-11-21T03:46:04;3.90;;;1.40;;
422;SDS011;198;48.752;9.180;2023-11-21T03:48:29;3.80;;;1.10;;
422;SDS011;198;48.752;9.180;2023-11-21T03:50:55;3.33;;;0.83;;
422;SDS011;198;48.752;9.180;2023-11-21T03:53:20;5.37;;;1.07;;
422;SDS011;198;48.752;9.180;2023-11-21T03:55:46;1.73;;;0.87;;
422;SDS011;198;48.752;9.180;2023-11-21T03:58:12;5.57;;;1.40;;
422;SDS011;198;48.752;9.180;2023-11-21T04:00:37;1.60;;;1.30;;
422;SDS011;198;48.752;9.180;2023-11-21T04:03:03;1.53;;;1.10;;
422;SDS011;198;48.752;9.180;2023-11-21T04:05:28;2.23;;;0.90;;
422;SDS011;198;48.752;9.180;2023-11-21T04:07:54;2.03;;;1.00;;
422;SDS011;198;48.752;9.180;2023-11-21T04:10:19;2.23;;;0.93;;
422;SDS011;198;48.752;9.180;2023-11-21T04:12:45;2.00;;;1.10;;
422;SDS011;198;48.752;9.180;2023-11-21T04:15:11;2.73;;;0.97;;
422;SDS011;198;48.752;9.180;2023-11-21T04:17:38;2.00;;;0.80;;
422;SDS011;198;48.752;9.180;2023-11-21T04:20:04;1.67;;;1.03;;
422;SDS011;198;48.752;9.180;2023-11-21T04:22:40;2.40;;;1.10;;
422;SDS011;198;48.752;9.180;2023-11-21T04:25:08;0.70;;;0.70;;
422;SDS011;198;48.752;9.180;2023-11-21T04:27:36;0.83;;;0.73;;
422;SDS011;198;48.752;9.180;2023-11-21T04:30:01;0.70;;;0.60;;
422;SDS011;198;48.752;9.180;2023-11-21T04:32:27;0.90;;;0.80;;
422;SDS011;198;48.752;9.180;2023-11-21T04:34:53;0.87;;;0.77;;
422;SDS011;198;48.752;9.180;2023-11-21T04:37:18;1.33;;;0.90;;
422;SDS011;198;48.752;9.180;2023-11-21T04:39:44;1.50;;;1.27;;
422;SDS011;198;48.752;9.180;2023-11-21T04:42:09;0.70;;;0.70;;
422;SDS011;198;48.752;9.180;2023-11-21T04:44:35;2.27;;;0.70;;
422;SDS011;198;48.752;9.180;2023-11-21T04:47:00;7.97;;;1.27;;
422;SDS011;198;48.752;9.180;2023-11-21T04:49:26;3.10;;;0.70;;
422;SDS011;198;48.752;9.180;2023-11-21T04:51:52;2.40;;;0.70;;
422;SDS011;198;48.752;9.180;2023-11-21T04:54:17;1.03;;;0.80;;
422;SDS011;198;48.752;9.180;2023-11-21T04:56:43;2.40;;;0.87;;
422;SDS011;198;48.752;9.180;2023-11-21T04:59:08;0.80;;;0.73;;
422;SDS011;198;48.752;9.180;2023-11-21T05:01:34;0.80;;;0.77;;
422;SDS011;198;48.752;9.180;2023-11-21T05:04:01;3.70;;;1.10;;
422;SDS011;198;48.752;9.180;2023-11-21T05:06:27;6.67;;;1.30;;
422;SDS011;198;48.752;9.180;2023-11-21T05:08:52;0.87;;;0.80;;
422;SDS011;198;48.752;9.180;2023-11-21T05:11:27;4.07;;;0.80;;
422;SDS011;198;48.752;9.180;2023-11-21T05:13:53;3.70;;;0.83;;
422;SDS011;198;48.752;9.180;2023-11-21T05:16:21;3.27;;;0.90;;
422;SDS011;198;48.752;9.180;2023-11-21T05:18:47;0.90;;;0.80;;
422;SDS011;198;48.752;9.180;2023-11-21T05:21:12;7.83;;;0.73;;
422;SDS011;198;48.752;9.180;2023-11-21T05:23:38;1.80;;;0.80;;
422;SDS011;198;48.752;9.180;2023-11-21T05:26:03;1.67;;;0.90;;
422;SDS011;198;48.752;9.180;2023-11-21T05:28:29;1.90;;;0.87;;
422;SDS011;198;48.752;9.180;2023-11-21T05:30:54;0.90;;;0.90;;
422;SDS011;198;48.752;9.180;2023-11-21T05:33:20;1.83;;;1.03;;
422;SDS011;198;48.752;9.180;2023-11-21T05:35:46;1.27;;;1.07;;
422;SDS011;198;48.752;9.180;2023-11-21T05:38:13;5.10;;;1.17;;
422;SDS011;198;48.752;9.180;2023-11-21T05:40:39;1.07;;;0.90;;
422;SDS011;198;48.752;9.180;2023-11-21T05:43:04;2.90;;;0.80;;
422;SDS011;198;48.752;9.180;2023-11-21T05:45:30;3.17;;;1.00;;
422;SDS011;198;48.752;9.180;2023-11-21T05:47:55;2.20;;;1.00;;
422;SDS011;198;48.752;9.180;2023-11-21T05:50:22;2.50;;;0.80;;
422;SDS011;198;48.752;9.180;2023-11-21T05:52:48;1.37;;;1.03;;
422;SDS011;198;48.752;9.180;2023-11-21T05:55:14;1.07;;;0.90;;
422;SDS011;198;48.752;9.180;2023-11-21T05:57:40;1.57;;;1.40;;
422;SDS011;198;48.752;9.180;2023-11-21T06:00:09;6.30;;;1.00;;
422;SDS011;198;48.752;9.180;2023-11-21T06:02:45;1.57;;;0.83;;
422;SDS011;198;48.752;9.180;2023-11-21T06:05:11;1.40;;;1.03;;
422;SDS011;198;48.752;9.180;2023-11-21T06:07:37;0.90;;;0.80;;
422;SDS011;198;48.752;9.180;2023-11-21T06:10:04;2.20;;;0.90;;
422;SDS011;198;48.752;9.180;2023-11-21T06:12:36;1.00;;;0.90;;
422;SDS011;198;48.752;9.180;2023-11-21T06:15:03;3.17;;;1.57;;
422;SDS011;198;48.752;9.180;2023-11-21T06:17:30;2.27;;;1.00;;
422;SDS011;198;48.752;9.180;2023-11-21T06:19:56;1.20;;;0.70;;
422;SDS011;198;48.752;9.180;2023-11-21T06:22:22;1.07;;;0.97;;
422;SDS011;198;48.752;9.180;2023-11-21T06:24:47;3.70;;;1.27;;
422;SDS011;198;48.752;9.180;2023-11-21T06:27:13;8.83;;;2.50;;
422;SDS011;198;48.752;9.180;2023-11-21T06:29:38;2.13;;;1.43;;
422;SDS011;198;48.752;9.180;2023-11-21T06:32:04;1.13;;;1.03;;
422;SDS011;198;48.752;9.180;2023-11-21T06:34:30;2.10;;;1.27;;
422;SDS011;198;48.752;9.180;2023-11-21T06:36:56;1.40;;;1.30;;
422;SDS011;198;48.752;9.180;2023-11-21T06:39:21;2.00;;;1.40;;
422;SDS011;198;48.752;9.180;2023-11-21T06:41:48;1.80;;;1.70;;
422;SDS011;198;48.752;9.180;2023-11-21T06:44:16;2.57;;;1.70;;
422;SDS011;198;48.752;9.180;2023-11-21T06:46:42;1.90;;;1.40;;
422;SDS011;198;48.752;9.180;2023-11-21T06:49:08;4.70;;;2.00;;
422;SDS011;198;48.752;9.180;2023-11-21T06:51:33;2.33;;;1.47;;
422;SDS011;198;48.752;9.180;2023-11-21T06:53:59;1.30;;;1.20;;
422;SDS011;198;48.752;9.180;2023-11-21T06:56:24;2.07;;;1.47;;
422;SDS011;198;48.752;9.180;2023-11-21T06:58:50;5.17;;;1.53;;
422;SDS011;198;48.752;9.180;2023-11-21T07:01:18;3.30;;;1.50;;
422;SDS011;198;48.752;9.180;2023-11-21T07:03:44;2.77;;;1.20;;
422;SDS011;198;48.752;9.180;2023-11-21T07:06:10;3.23;;;1.30;;
422;SDS011;198;48.752;9.180;2023-11-21T07:08:36;2.30;;;1.70;;
422;SDS011;198;48.752;9.180;2023-11-21T07:11:03;2.23;;;1.80;;
422;SDS011;198;48.752;9.180;2023-11-21T07:13:29;3.80;;;1.50;;
422;SDS011;198;48.752;9.180;2023-11-21T07:15:55;1.37;;;1.27;;
422;SDS011;198;48.752;9.180;2023-11-21T07:18:21;2.50;;;1.07;;
422;SDS011;198;48.752;9.180;2023-11-21T07:20:46;3.03;;;1.50;;
422;SDS011;198;48.752;9.180;2023-11-21T07:23:11;13.80;;;1.63;;
422;SDS011;198;48.752;9.180;2023-11-21T07:25:37;9.30;;;1.80;;
422;SDS011;198;48.752;9.180;2023-11-21T07:28:02;6.13;;;1.60;;
422;SDS011;198;48.752;9.180;2023-11-21T07:30:30;3.13;;;1.37;;
422;SDS011;198;48.752;9.180;2023-11-21T07:32:55;5.50;;;1.80;;
422;SDS011;198;48.752;9.180;2023-11-21T07:35:21;1.53;;;1.47;;
422;SDS011;198;48.752;9.180;2023-11-21T07:37:46;4.87;;;1.97;;
422;SDS011;198;48.752;9.180;2023-11-21T07:40:13;4.00;;;1.47;;
422;SDS011;198;48.752;9.180;2023-11-21T07:42:39;2.30;;;1.47;;
422;SDS011;198;48.752;9.180;2023-11-21T07:45:05;4.97;;;1.33;;
422;SDS011;198;48.752;9.180;2023-11-21T07:47:32;2.13;;;1.20;;
422;SDS011;198;48.752;9.180;2023-11-21T07:49:59;1.43;;;1.30;;
422;SDS011;198;48.752;9.180;2023-11-21T07:52:25;2.00;;;1.23;;
422;SDS011;198;48.752;9.180;2023-11-21T07:54:50;1.77;;;0.90;;
422;SDS011;198;48.752;9.180;2023-11-21T07:57:16;1.33;;;1.20;;
422;SDS011;198;48.752;9.180;2023-11-21T07:59:41;4.53;;;1.30;;
422;SDS011;198;48.752;9.180;2023-11-21T08:02:07;2.37;;;1.43;;
422;SDS011;198;48.752;9.180;2023-11-21T08:04:32;5.77;;;2.30;;
422;SDS011;198;48.752;9.180;2023-11-21T08:07:00;2.50;;;2.10;;
422;SDS011;198;48.752;9.180;2023-11-21T08:09:26;9.70;;;2.57;;
422;SDS011;198;48.752;9.180;2023-11-21T08:11:52;9.70;;;4.00;;
422;SDS011;198;48.752;9.180;2023-11-21T08:14:18;7.27;;;2.80;;
422;SDS011;198;48.752;9.180;2023-11-21T08:16:45;6.03;;;1.97;;
422;SDS011;198;48.752;9.180;2023-11-21T08:19:10;14.70;;;2.93;;
422;SDS011;198;48.752;9.180;2023-11-21T08:21:36;2.00;;;1.90;;
422;SDS011;198;48.752;9.180;2023-11-21T08:24:05;9.23;;;2.40;;
422;SDS011;198;48.752;9.180;2023-11-21T08:26:35;9.70;;;2.40;;
422;SDS011;198;48.752;9.180;2023-11-21T08:29:01;3.97;;;2.07;;
422;SDS011;198;48.752;9.180;2023-11-21T08:31:26;5.20;;;2.07;;
422;SDS011;198;48.752;9.180;2023-11-21T08:33:52;8.40;;;2.27;;
422;SDS011;198;48.752;9.180;2023-11-21T08:36:20;3.70;;;2.17;;
422;SDS011;198;48.752;9.180;2023-11-21T08:38:50;7.70;;;1.57;;
422;SDS011;198;48.752;9.180;2023-11-21T08:41:19;4.63;;;1.90;;
422;SDS011;198;48.752;9.180;2023-11-21T08:43:49;5.43;;;1.70;;
422;SDS011;198;48.752;9.180;2023-11-21T08:46:15;2.40;;;1.60;;
422;SDS011;198;48.752;9.180;2023-11-21T08:48:43;8.00;;;1.90;;
422;SDS011;198;48.752;9.180;2023-11-21T08:51:09;2.80;;;1.60;;
422;SDS011;198;48.752;9.180;2023-11-21T08:53:36;4.60;;;2.10;;
422;SDS011;198;48.752;9.180;2023-11-21T08:56:02;9.17;;;1.57;;
422;SDS011;198;48.752;9.180;2023-11-21T08:58:29;7.43;;;1.70;;
422;SDS011;198;48.752;9.180;2023-11-21T09:00:55;4.17;;;1.63;;
422;SDS011;198;48.752;9.180;2023-11-21T09:03:21;13.90;;;2.33;;
422;SDS011;198;48.752;9.180;2023-11-21T09:05:47;4.50;;;2.47;;
422;SDS011;198;48.752;9.180;2023-11-21T09:08:13;1.60;;;1.50;;
422;SDS011;198;48.752;9.180;2023-11-21T09:10:39;2.00;;;1.13;;
422;SDS011;198;48.752;9.180;2023-11-21T09:13:04;4.43;;;1.53;;
422;SDS011;198;48.752;9.180;2023-11-21T09:15:30;2.90;;;1.40;;
422;SDS011;198;48.752;9.180;2023-11-21T09:17:56;1.90;;;1.10;;
422;SDS011;198;48.752;9.180;2023-11-21T09:20:21;1.60;;;1.20;;
422;SDS011;198;48.752;9.180;2023-11-21T09:22:48;2.43;;;1.03;;
422;SDS011;198;48.752;9.180;2023-11-21T09:25:13;1.80;;;1.47;;
422;SDS011;198;48.752;9.180;2023-11-21T09:27:39;6.50;;;1.23;;
422;SDS011;198;48.752;9.180;2023-11-21T09:30:05;1.77;;;1.00;;
422;SDS011;198;48.752;9.180;2023-11-21T09:32:34;3.53;;;1.27;;
422;SDS011;198;48.752;9.180;2023-11-21T09:35:02;3.70;;;1.43;;
422;SDS011;198;48.752;9.180;2023-11-21T09:37:29;2.83;;;1.00;;
422;SDS011;198;48.752;9.180;2023-11-21T09:39:55;1.23;;;1.17;;
422;SDS011;198;48.752;9.180;2023-11-21T09:42:25;2.80;;;1.07;;
422;SDS011;198;48.752;9.180;2023-11-21T09:45:14;5.17;;;1.77;;
422;SDS011;198;48.752;9.180;2023-11-21T09:47:45;6.00;;;1.73;;
422;SDS011;198;48.752;9.180;2023-11-21T09:50:11;2.73;;;1.17;;
422;SDS011;198;48.752;9.180;2023-11-21T09:52:49;0.70;;;0.60;;
422;SDS011;198;48.752;9.180;2023-11-21T09:55:23;1.53;;;1.27;;
422;SDS011;198;48.752;9.180;2023-11-21T09:57:52;2.43;;;1.20;;
422;SDS011;198;48.752;9.180;2023-11-21T10:00:19;0.70;;;0.60;;
422;SDS011;198;48.752;9.180;2023-11-21T10:02:48;1.13;;;0.83;;
422;SDS011;198;48.752;9.180;2023-11-21T10:05:14;1.47;;;0.90;;
422;SDS011;198;48.752;9.180;2023-11-21T10:07:42;1.60;;;1.20;;
422;SDS011;198;48.752;9.180;2023-11-21T10:10:09;2.10;;;0.90;;
422;SDS011;198;48.752;9.180;2023-11-21T10:12:35;1.30;;;0.83;;
422;SDS011;198;48.752;9.180;2023-11-21T10:15:01;1.70;;;0.80;;
422;SDS011;198;48.752;9.180;2023-11-21T10:17:28;4.40;;;1.00;;
422;SDS011;198;48.752;9.180;2023-11-21T10:20:01;4.10;;;1.00;;
422;SDS011;198;48.752;9.180;2023-11-21T10:22:31;1.53;;;0.83;;
422;SDS011;198;48.752;9.180;2023-11-21T10:24:58;1.53;;;0.80;;
422;SDS011;198;48.752;9.180;2023-11-21T10:27:26;1.13;;;0.90;;
422;SDS011;198;48.752;9.180;2023-11-21T10:29:52;1.13;;;0.83;;
422;SDS011;198;48.752;9.180;2023-11-21T10:32:18;0.90;;;0.80;;
422;SDS011;198;48.752;9.180;2023-11-21T10:34:55;1.50;;;1.03;;
422;SDS011;198;48.752;9.180;2023-11-21T10:37:21;0.67;;;0.60;;
422;SDS011;198;48.752;9.180;2023-11-21T10:39:46;1.27;;;0.83;;
422;SDS011;198;48.752;9.180;2023-11-21T10:42:12;0.50;;;0.50;;
422;SDS011;198;48.752;9.180;2023-11-21T10:44:37;0.70;;;0.70;;
422;SDS011;198;48.752;9.180;2023-11-21T10:47:03;0.70;;;0.60;;
422;SDS011;198;48.752;9.180;2023-11-21T10:49:30;0.60;;;0.60;;
422;SDS011;198;48.752;9.180;2023-11-21T10:51:56;1.93;;;0.60;;
422;SDS011;198;48.752;9.180;2023-11-21T10:54:22;0.73;;;0.63;;
422;SDS011;198;48.752;9.180;2023-11-21T10:56:50;0.70;;;0.60;;
422;SDS011;198;48.752;9.180;2023-11-21T10:59:21;0.77;;;0.70;;
422;SDS011;198;48.752;9.180;2023-11-21T11:01:50;1.70;;;1.20;;
422;SDS011;198;48.752;9.180;2023-11-21T11:04:18;0.97;;;0.60;;
422;SDS011;198;48.752;9.180;2023-11-21T11:06:44;3.03;;;1.00;;
422;SDS011;198;48.752;9.180;2023-11-21T11:09:18;1.83;;;0.80;;
422;SDS011;198;48.752;9.180;2023-11-21T11:11:45;0.80;;;0.70;;
422;SDS011;198;48.752;9.180;2023-11-21T11:14:11;2.20;;;0.90;;
422;SDS011;198;48.752;9.180;2023-11-21T11:16:38;1.17;;;0.83;;
422;SDS011;198;48.752;9.180;2023-11-21T11:19:06;0.87;;;0.80;;
422;SDS011;198;48.752;9.180;2023-11-21T11:21:43;1.27;;;0.80;;
422;SDS011;198;48.752;9.180;2023-11-21T11:27:55;1.10;;;0.80;;
422;SDS011;198;48.752;9.180;2023-11-21T11:35:51;1.03;;;0.87;;
422;SDS011;198;48.752;9.180;2023-11-21T11:38:21;1.43;;;0.90;;
422;SDS011;198;48.752;9.180;2023-11-21T11:40:52;1.00;;;0.90;;
422;SDS011;198;48.752;9.180;2023-11-21T11:43:25;0.90;;;0.80;;
422;SDS011;198;48.752;9.180;2023-11-21T11:45:52;0.93;;;0.83;;
422;SDS011;198;48.752;9.180;2023-11-21T11:48:21;4.17;;;1.17;;
422;SDS011;198;48.752;9.180;2023-11-21T11:51:00;1.20;;;1.00;;
422;SDS011;198;48.752;9.180;2023-11-21T11:53:36;3.60;;;1.10;;
422;SDS011;198;48.752;9.180;2023-11-21T11:59:03;0.97;;;0.87;;
422;SDS011;198;48.752;9.180;2023-11-21T12:01:32;1.10;;;1.00;;
422;SDS011;198;48.752;9.180;2023-11-21T12:06:39;1.07;;;0.97;;
422;SDS011;198;48.752;9.180;2023-11-21T12:09:06;0.90;;;0.80;;
422;SDS011;198;48.752;9.180;2023-11-21T12:11:32;1.00;;;0.90;;
422;SDS011;198;48.752;9.180;2023-11-21T12:14:00;1.07;;;1.00;;
422;SDS011;198;48.752;9.180;2023-11-21T12:16:27;4.50;;;1.20;;
422;SDS011;198;48.752;9.180;2023-11-21T12:18:52;2.10;;;1.03;;
422;SDS011;198;48.752;9.180;2023-11-21T12:21:19;1.70;;;1.40;;
422;SDS011;198;48.752;9.180;2023-11-21T12:23:45;1.07;;;1.00;;
422;SDS011;198;48.752;9.180;2023-11-21T12:26:12;7.40;;;1.17;;
422;SDS011;198;48.752;9.180;2023-11-21T12:28:38;2.97;;;1.30;;
422;SDS011;198;48.752;9.180;2023-11-21T12:31:04;1.97;;;1.60;;
422;SDS011;198;48.752;9.180;2023-11-21T12:33:31;0.90;;;0.80;;
422;SDS011;198;48.752;9.180;2023-11-21T12:36:00;1.17;;;1.07;;
422;SDS011;198;48.752;9.180;2023-11-21T12:38:33;1.30;;;1.10;;
422;SDS011;198;48.752;9.180;2023-11-21T12:41:00;1.13;;;1.10;;
422;SDS011;198;48.752;9.180;2023-11-21T12:43:25;1.87;;;1.17;;
422;SDS011;198;48.752;9.180;2023-11-21T12:45:51;2.20;;;1.10;;
422;SDS011;198;48.752;9.180;2023-11-21T12:48:32;1.80;;;0.97;;
422;SDS011;198;48.752;9.180;2023-11-21T12:50:58;1.00;;;0.90;;
422;SDS011;198;48.752;9.180;2023-11-21T12:53:25;2.77;;;1.40;;
422;SDS011;198;48.752;9.180;2023-11-21T12:55:51;1.40;;;1.30;;
422;SDS011;198;48.752;9.180;2023-11-21T12:58:17;4.07;;;1.73;;
422;SDS011;198;48.752;9.180;2023-11-21T13:00:46;1.33;;;1.23;;
422;SDS011;198;48.752;9.180;2023-11-21T13:03:15;1.30;;;1.20;;
422;SDS011;198;48.752;9.180;2023-11-21T13:05:50;2.70;;;1.43;;
422;SDS011;198;48.752;9.180;2023-11-21T13:08:18;2.10;;;1.20;;
422;SDS011;198;48.752;9.180;2023-11-21T13:10:46;1.73;;;1.20;;
422;SDS011;198;48.752;9.180;2023-11-21T13:13:14;1.90;;;1.53;;
422;SDS011;198;48.752;9.180;2023-11-21T13:15:56;2.33;;;1.10;;
422;SDS011;198;48.752;9.180;2023-11-21T13:18:29;1.83;;;0.90;;
422;SDS011;198;48.752;9.180;2023-11-21T13:20:56;1.23;;;1.20;;
422;SDS011;198;48.752;9.180;2023-11-21T13:23:23;0.77;;;0.67;;
422;SDS011;198;48.752;9.180;2023-11-21T13:25:50;0.90;;;0.90;;
422;SDS011;198;48.752;9.180;2023-11-21T13:28:16;1.10;;;1.00;;
422;SDS011;198;48.752;9.180;2023-11-21T13:30:43;1.63;;;1.47;;
422;SDS011;198;48.752;9.180;2023-11-21T13:33:09;0.77;;;0.70;;
422;SDS011;198;48.752;9.180;2023-11-21T13:35:42;0.83;;;0.70;;
422;SDS011;198;48.752;9.180;2023-11-21T13:38:13;1.23;;;0.80;;
422;SDS011;198;48.752;9.180;2023-11-21T13:40:48;1.27;;;0.60;;
422;SDS011;198;48.752;9.180;2023-11-21T13:43:15;0.70;;;0.70;;
422;SDS011;198;48.752;9.180;2023-11-21T13:45:45;0.60;;;0.60;;
422;SDS011;198;48.752;9.180;2023-11-21T13:48:11;0.77;;;0.70;;
422;SDS011;198;48.752;9.180;2023-11-21T13:50:45;1.10;;;1.00;;
422;SDS011;198;48.752;9.180;2023-11-21T13:53:20;3.03;;;1.00;;
422;SDS011;198;48.752;9.180;2023-11-21T13:55:49;0.90;;;0.80;;
422;SDS011;198;48.752;9.180;2023-11-21T13:58:15;3.07;;;1.83;;
422;SDS011;198;48.752;9.180;2023-11-21T14:00:48;1.90;;;1.73;;
422;SDS011;198;48.752;9.180;2023-11-21T14:03:21;1.67;;;1.60;;
422;SDS011;198;48.752;9.180;2023-11-21T14:05:48;1.00;;;0.90;;
422;SDS011;198;48.752;9.180;2023-11-21T14:08:22;3.50;;;1.40;;
422;SDS011;198;48.752;9.180;2023-11-21T14:10:53;1.57;;;1.40;;
422;SDS011;198;48.752;9.180;2023-11-21T14:13:22;3.63;;;1.20;;
422;SDS011;198;48.752;9.180;2023-11-21T14:15:49;3.67;;;1.90;;
422;SDS011;198;48.752;9.180;2023-11-21T14:18:23;1.63;;;1.53;;
422;SDS011;198;48.752;9.180;2023-11-21T14:20:55;2.47;;;1.77;;
422;SDS011;198;48.752;9.180;2023-11-21T14:23:21;1.70;;;1.70;;
422;SDS011;198;48.752;9.180;2023-11-21T14:25:48;2.33;;;1.90;;
422;SDS011;198;48.752;9.180;2023-11-21T14:28:14;3.77;;;2.20;;
422;SDS011;198;48.752;9.180;2023-11-21T14:30:40;1.90;;;1.80;;
422;SDS011;198;48.752;9.180;2023-11-21T14:33:07;3.33;;;2.17;;
422;SDS011;198;48.752;9.180;2023-11-21T14:35:34;1.97;;;1.53;;
422;SDS011;198;48.752;9.180;2023-11-21T14:38:00;3.43;;;2.10;;
422;SDS011;198;48.752;9.180;2023-11-21T14:40:27;3.87;;;2.27;;
422;SDS011;198;48.752;9.180;2023-11-21T14:42:57;5.37;;;1.90;;
422;SDS011;198;48.752;9.180;2023-11-21T14:45:23;2.63;;;1.77;;
422;SDS011;198;48.752;9.180;2023-11-21T14:47:51;4.80;;;2.30;;
422;SDS011;198;48.752;9.180;2023-11-21T14:50:30;2.50;;;1.67;;
422;SDS011;198;48.752;9.180;2023-11-21T14:53:11;2.23;;;1.50;;
422;SDS011;198;48.752;9.180;2023-11-21T14:55:38;7.60;;;1.80;;
422;SDS011;198;48.752;9.180;2023-11-21T14:58:17;2.07;;;1.70;;
422;SDS011;198;48.752;9.180;2023-11-21T15:00:51;4.40;;;1.30;;
422;SDS011;198;48.752;9.180;2023-11-21T15:03:24;2.30;;;1.73;;
422;SDS011;198;48.752;9.180;2023-11-21T15:06:04;3.33;;;1.60;;
422;SDS011;198;48.752;9.180;2023-11-21T15:08:49;2.37;;;1.77;;
422;SDS011;198;48.752;9.180;2023-11-21T15:11:31;1.33;;;1.20;;
422;SDS011;198;48.752;9.180;2023-11-21T15:13:58;2.30;;;1.73;;
422;SDS011;198;48.752;9.180;2023-11-21T15:16:25;1.90;;;1.37;;
422;SDS011;198;48.752;9.180;2023-11-21T15:18:53;2.77;;;2.17;;
422;SDS011;198;48.752;9.180;2023-11-21T15:21:19;2.13;;;1.67;;
422;SDS011;198;48.752;9.180;2023-11-21T15:23:47;2.00;;;1.73;;
422;SDS011;198;48.752;9.180;2023-11-21T15:26:13;2.53;;;2.00;;
422;SDS011;198;48.752;9.180;2023-11-21T15:28:38;1.73;;;1.70;;
422;SDS011;198;48.752;9.180;2023-11-21T15:31:04;2.77;;;2.17;;
422;SDS011;198;48.752;9.180;2023-11-21T15:33:30;2.20;;;2.00;;
422;SDS011;198;48.752;9.180;2023-11-21T15:35:55;8.20;;;2.37;;
422;SDS011;198;48.752;9.180;2023-11-21T15:38:22;2.57;;;2.13;;
422;SDS011;198;48.752;9.180;2023-11-21T15:40:48;5.70;;;2.40;;
422;SDS011;198;48.752;9.180;2023-11-21T15:43:15;2.93;;;2.50;;
422;SDS011;198;48.752;9.180;2023-11-21T15:45:40;4.57;;;2.43;;
422;SDS011;198;48.752;9.180;2023-11-21T15:48:06;3.17;;;2.70;;
422;SDS011;198;48.752;9.180;2023-11-21T15:50:31;4.73;;;2.40;;
422;SDS011;198;48.752;9.180;2023-11-21T15:52:57;4.20;;;3.10;;
422;SDS011;198;48.752;9.180;2023-11-21T15:55:24;7.97;;;3.30;;
422;SDS011;198;48.752;9.180;2023-11-21T15:57:50;6.57;;;2.67;;
422;SDS011;198;48.752;9.180;2023-11-21T16:00:15;3.53;;;2.50;;